Home > Products > Valid Products > TAF

000
FTUS43 KGID 032320
TAFGRI
TAF
KGRI 032320Z 0400/0424 29010KT P6SM FEW200
     FM040300 VRB06KT P6SM SKC
     FM041700 34012KT P6SM SKC=



000
FTUS43 KGID 032320
TAFGRI
TAF
KGRI 032320Z 0400/0424 29010KT P6SM FEW200
     FM040300 VRB06KT P6SM SKC
     FM041700 34012KT P6SM SKC=



000
FTUS43 KGID 031727
TAFGRI
TAF
KGRI 031727Z 0318/0418 29005KT P6SM SKC
     FM032000 30010KT P6SM SKC
     FM040900 33008KT P6SM SKC=



000
FTUS43 KGID 031128
TAFGRI
TAF
KGRI 031128Z 0312/0412 VRB06KT P6SM FEW070
     FM031800 30011KT P6SM FEW060
     FM040000 30008KT P6SM SKC
     FM040900 33007KT P6SM SKC=



000
FTUS43 KGID 031128
TAFGRI
TAF
KGRI 031128Z 0312/0412 VRB06KT P6SM FEW070
     FM031800 30011KT P6SM FEW060
     FM040000 30008KT P6SM SKC
     FM040900 33007KT P6SM SKC=



000
FTUS43 KGID 030555
TAFGRI
TAF
KGRI 030555Z 0306/0406 VRB05KT P6SM BKN080
     FM031200 VRB06KT P6SM FEW080
     FM031800 30011KT P6SM FEW060
     FM040000 30008KT P6SM SKC=



000
FTUS43 KGID 030555
TAFGRI
TAF
KGRI 030555Z 0306/0406 VRB05KT P6SM BKN080
     FM031200 VRB06KT P6SM FEW080
     FM031800 30011KT P6SM FEW060
     FM040000 30008KT P6SM SKC=



000
FTUS43 KGID 022336
TAFGRI
TAF
KGRI 022336Z 0300/0324 VRB03KT P6SM VCSH BKN120
     FM030300 VRB03KT P6SM VCSH BKN060
     FM030900 00000KT P6SM BKN120
     FM031300 29010KT P6SM SCT250=



000
FTUS43 KGID 021736
TAFGRI
TAF
KGRI 021736Z 0218/0318 30007KT P6SM SCT045 SCT250
     FM022300 VRB05KT P6SM BKN150
     FM030900 24006KT P6SM SCT150
     FM031400 29007KT P6SM FEW150=



000
FTUS43 KGID 021736
TAFGRI
TAF
KGRI 021736Z 0218/0318 30007KT P6SM SCT045 SCT250
     FM022300 VRB05KT P6SM BKN150
     FM030900 24006KT P6SM SCT150
     FM031400 29007KT P6SM FEW150=



000
FTUS43 KGID 021120
TAFGRI
TAF
KGRI 021120Z 0212/0312 30006KT P6SM SKC
     FM022200 VRB04KT P6SM BKN110
     FM030200 18005KT P6SM SCT200=



000
FTUS43 KGID 020545
TAFGRI
TAF
KGRI 020545Z 0206/0306 31005KT P6SM SCT050
     FM030000 VRB04KT P6SM VCSH SCT110
     FM030200 18004KT P6SM VCSH SCT200=



000
FTUS43 KGID 012339
TAFGRI
TAF
KGRI 012339Z 0200/0224 02012G18KT P6SM BKN035
     FM020200 36007KT P6SM SCT035 BKN050
     FM020500 32010KT P6SM SCT080=



000
FTUS43 KGID 011720
TAFGRI
TAF
KGRI 011720Z 0118/0218 01015KT P6SM BKN018
     FM012200 02011KT P6SM BKN030
     FM020300 35006KT P6SM SCT030
     FM020600 32006KT P6SM SCT120
     FM021500 35006KT P6SM SCT250=



000
FTUS43 KGID 011358 AAA
TAFGRI
TAF AMD
KGRI 011358Z 0114/0212 36014KT P6SM OVC012
     FM011600 36014KT P6SM OVC015
     FM012000 01012KT P6SM OVC025
     FM012200 36011KT P6SM BKN035
     FM020600 32006KT P6SM SCT150=



000
FTUS43 KGID 011120
TAFGRI
TAF
KGRI 011120Z 0112/0212 01015KT 5SM BR VCSH OVC005
     FM011400 36014KT P6SM OVC009
     FM011600 36014KT P6SM OVC015
     FM012000 01012KT P6SM OVC025
     FM012200 36011KT P6SM BKN035
     FM020600 32006KT P6SM SCT150=



000
FTUS43 KGID 011120
TAFGRI
TAF
KGRI 011120Z 0112/0212 01015KT 5SM BR VCSH OVC005
     FM011400 36014KT P6SM OVC009
     FM011600 36014KT P6SM OVC015
     FM012000 01012KT P6SM OVC025
     FM012200 36011KT P6SM BKN035
     FM020600 32006KT P6SM SCT150=



000
FTUS43 KGID 011039 AAA
TAFGRI
TAF AMD
KGRI 011039Z 0111/0206 01015KT 5SM BR VCSH OVC005
     FM011400 36014KT P6SM OVC009
     FM011600 36014KT P6SM OVC015
     FM012200 01012KT P6SM OVC025
     FM012300 36011KT P6SM BKN035=



000
FTUS43 KGID 010538
TAFGRI
TAF
KGRI 010538Z 0106/0206 02015KT 3SM BR VCSH OVC006
     FM010800 01015KT P6SM VCSH OVC004
     FM011500 36014KT P6SM OVC006
     FM011800 36014KT P6SM OVC015
     FM012200 01012KT P6SM OVC025
     FM012300 36011KT P6SM BKN035=



000
FTUS43 KGID 010501 AAB
TAFGRI
TAF AMD
KGRI 010501Z 0105/0124 02017KT 5SM BR OVC006
     FM010900 36015KT 4SM BR VCSH OVC006
     FM011500 36014KT P6SM OVC005
     FM011700 36014KT P6SM OVC015=



000
FTUS43 KGID 010501 AAB
TAFGRI
TAF AMD
KGRI 010501Z 0105/0124 02017KT 5SM BR OVC006
     FM010900 36015KT 4SM BR VCSH OVC006
     FM011500 36014KT P6SM OVC005
     FM011700 36014KT P6SM OVC015=



000
FTUS43 KGID 010211 AAA
TAFGRI
TAF AMD
KGRI 010211Z 0102/0124 36010KT 3SM -SHRA OVC005
     FM010900 36015KT 4SM BR VCSH OVC006
     FM011500 36014KT P6SM OVC005
     FM011700 36014KT P6SM OVC015=



    US Dept of Commerce
    National Oceanic and Atmospheric Administration
    National Weather Service
    1325 East West Highway
    Silver Spring, MD 20910
    Page Author: NWS Internet Services Team
Disclaimer
Information Quality
Credits
Glossary
Privacy Policy
Freedom of Information Act (FOIA)
About Us
Career Opportunities